Time;durP1;ratioP1;P1;durP2;ratioP2;P2;SDS_P1;SDS_P2;PMS_P1;PMS_P2;Temp;Humidity;BMP_temperature;BMP_pressure;BME280_temperature;BME280_humidity;BME280_pressure;Samples;Min_cycle;Max_cycle;Signal;HPM_P1;HPM_P2
2022/01/16 00:00:37;;;;;;;;;;;;;;;5.76;72.39;102079.44;5138164;27;37498;-82
2022/01/16 00:05:46;;;;;;;;;;;;;;;5.59;72.51;102060.34;5138800;27;27077;-82
2022/01/16 00:08:11;;;;;;;;;;;;;;;5.55;73.13;102058.59;5137840;27;54655;-82
2022/01/16 00:10:37;;;;;;;;;;;;;;;5.54;73.00;102062.00;5143148;27;27147;-82
2022/01/16 00:13:02;;;;;;;;;;;;;;;5.48;73.59;102067.00;5130268;27;26718;-82
2022/01/16 00:15:27;;;;;;;;;;;;;;;5.47;73.79;102085.81;5139380;27;56630;-82
2022/01/16 00:17:57;;;;;;;;;;;;;;;5.39;73.42;102095.06;5140394;27;27000;-83
2022/01/16 00:20:24;;;;;;;;;;;;;;;5.34;72.86;102091.56;5139918;27;26793;-82
2022/01/16 00:22:50;;;;;;;;;;;;;;;5.35;73.89;102100.97;5139771;27;26828;-82
2022/01/16 00:25:16;;;;;;;;;;;;;;;5.37;73.06;102104.41;5140134;27;26820;-82
2022/01/16 00:27:41;;;;;;;;;;;;;;;5.36;73.36;102097.59;5139010;27;26464;-82
2022/01/16 00:30:07;;;;;;;;;;;;;;;5.33;73.32;102102.63;5138776;27;27003;-82
2022/01/16 00:32:32;;;;;;;;;;;;;;;5.31;73.53;102104.31;5150231;27;26858;-82
2022/01/16 00:34:57;;;;;;;;;;;;;;;5.27;73.76;102098.28;5143604;27;33107;-82
2022/01/16 00:37:22;;;;;;;;;;;;;;;5.27;73.24;102100.84;5138592;27;55206;-82
2022/01/16 00:39:47;;;;;;;;;;;;;;;5.26;73.70;102093.13;5138597;27;43036;-82
2022/01/16 00:42:13;;;;;;;;;;;;;;;5.26;72.95;102103.34;5138577;27;26918;-83
2022/01/16 00:44:38;;;;;;;;;;;;;;;5.23;73.82;102103.31;5138021;27;57122;-82
2022/01/16 00:47:03;;;;;;;;;;;;;;;5.17;73.33;102106.66;5139181;27;26877;-82
2022/01/16 00:49:31;;;;;;;;;;;;;;;5.16;73.77;102109.16;5138823;27;29009;-84
2022/01/16 00:51:56;;;;;;;;;;;;;;;5.16;72.87;102093.78;5141263;27;27031;-82
2022/01/16 00:54:21;;;;;;;;;;;;;;;5.17;73.50;102080.16;5140736;27;27052;-82
2022/01/16 00:56:46;;;;;;;;;;;;;;;5.17;73.75;102090.41;5138821;27;39260;-82
2022/01/16 00:59:11;;;;;;;;;;;;;;;5.14;73.67;102064.72;5138377;27;57362;-82
2022/01/16 01:01:37;;;;;;;;;;;;;;;5.11;73.05;102072.34;5119312;27;38506;-82
2022/01/16 01:04:02;;;;;;;;;;;;;;;5.12;72.95;102079.22;5143532;27;28085;-82
2022/01/16 01:06:27;;;;;;;;;;;;;;;5.13;73.64;102078.38;5147667;27;26967;-82
2022/01/16 01:08:52;;;;;;;;;;;;;;;5.15;73.10;102061.34;5141777;27;26891;-82
2022/01/16 01:11:23;;;;;;;;;;;;;;;5.16;72.88;102063.06;5139291;27;28643;-82
2022/01/16 01:16:34;;;;;;;;;;;;;;;5.15;73.64;102079.25;5135582;27;26873;-82
2022/01/16 01:19:00;;;;;;;;;;;;;;;5.14;73.25;102090.34;5138223;27;26941;-82
2022/01/16 01:21:28;;;;;;;;;;;;;;;5.13;72.87;102073.25;5140999;27;54992;-82
2022/01/16 01:23:54;;;;;;;;;;;;;;;5.09;72.98;102097.09;5152499;27;27035;-82
2022/01/16 01:26:24;;;;;;;;;;;;;;;5.07;73.77;102065.47;5142370;27;27136;-82
2022/01/16 01:28:50;;;;;;;;;;;;;;;5.00;72.89;102082.41;5141175;27;26849;-81
2022/01/16 01:31:15;;;;;;;;;;;;;;;4.99;73.09;102090.91;5140134;27;54578;-80
2022/01/16 01:33:40;;;;;;;;;;;;;;;4.99;73.36;102100.28;5141006;27;27394;-81
2022/01/16 01:36:05;;;;;;;;;;;;;;;4.99;72.95;102100.28;5141319;27;26844;-81
2022/01/16 01:38:31;;;;;;;;;;;;;;;4.96;73.69;102111.34;5141414;27;27044;-81
2022/01/16 01:40:56;;;;;;;;;;;;;;;4.99;73.41;102064.44;5142053;27;35155;-81
2022/01/16 01:51:18;;;;;;;;;;;;;;;5.06;73.21;101992.91;5144476;27;26609;-82
2022/01/16 01:53:44;;;;;;;;;;;;;;;5.10;73.50;101970.78;5142385;27;27143;-82
2022/01/16 01:56:10;;;;;;;;;;;;;;;5.12;72.86;102010.06;5142246;27;26804;-82
2022/01/16 01:58:36;;;;;;;;;;;;;;;5.10;73.82;102017.72;5142452;27;27327;-82
2022/01/16 02:01:02;;;;;;;;;;;;;;;5.10;73.34;102024.56;5141352;27;26853;-80
2022/01/16 02:06:05;;;;;;;;;;;;;;;5.05;72.82;102039.84;5137408;27;27136;-82
2022/01/16 02:08:30;;;;;;;;;;;;;;;5.05;73.84;102039.84;5141785;27;26985;-82
2022/01/16 02:11:01;;;;;;;;;;;;;;;5.08;73.14;102039.03;5140570;27;26814;-82
2022/01/16 02:13:31;;;;;;;;;;;;;;;5.00;73.21;102035.47;5140626;27;28319;-82
2022/01/16 02:34:35;;;;;;;;;;;;;;;5.23;72.68;102047.84;5137079;27;27776;-81
2022/01/16 02:37:07;;;;;;;;;;;;;;;5.21;72.64;102051.22;5139827;27;26984;-81
2022/01/16 02:39:35;;;;;;;;;;;;;;;5.20;73.48;102049.47;5142939;27;27380;-81
2022/01/16 02:42:03;;;;;;;;;;;;;;;5.20;73.21;102057.16;5144690;27;26887;-81
2022/01/16 02:46:55;;;;;;;;;;;;;;;5.08;73.25;102046.72;5137604;27;27017;-82
2022/01/16 02:49:23;;;;;;;;;;;;;;;5.06;74.13;102048.38;5140871;27;26822;-81
2022/01/16 02:51:50;;;;;;;;;;;;;;;5.04;73.28;102047.47;5141391;27;26978;-81
2022/01/16 02:54:15;;;;;;;;;;;;;;;5.05;73.88;102033.84;5140273;27;27526;-81
2022/01/16 02:56:40;;;;;;;;;;;;;;;5.03;73.07;102031.25;5140654;27;26885;-81
2022/01/16 02:59:09;;;;;;;;;;;;;;;4.91;73.26;102010.59;5150314;27;28623;-81
2022/01/16 03:01:34;;;;;;;;;;;;;;;5.02;74.25;102015.88;5147100;27;26857;-81
2022/01/16 03:04:00;;;;;;;;;;;;;;;5.00;73.37;102031.22;5142994;27;27153;-82
2022/01/16 03:06:26;;;;;;;;;;;;;;;4.98;73.76;102026.91;5142084;27;26957;-81
2022/01/16 03:08:51;;;;;;;;;;;;;;;4.97;73.74;102022.63;5149383;27;26955;-81
2022/01/16 03:11:24;;;;;;;;;;;;;;;5.01;74.35;102026.97;5128942;27;54077;-81
2022/01/16 03:13:50;;;;;;;;;;;;;;;5.04;73.93;102022.75;5143016;27;27666;-81
2022/01/16 03:16:19;;;;;;;;;;;;;;;5.08;73.13;102033.91;5140888;27;26942;-81
2022/01/16 03:24:12;;;;;;;;;;;;;;;5.04;73.90;102037.25;5140309;27;27364;-81
2022/01/16 03:26:38;;;;;;;;;;;;;;;5.00;74.13;102010.72;5139817;27;30405;-81
2022/01/16 03:29:03;;;;;;;;;;;;;;;5.03;73.86;102022.72;5139372;27;26842;-81
2022/01/16 03:31:28;;;;;;;;;;;;;;;5.05;74.01;102023.63;5137736;27;27199;-80
2022/01/16 03:33:54;;;;;;;;;;;;;;;5.06;74.09;102021.06;5138011;27;26945;-81
2022/01/16 03:36:20;;;;;;;;;;;;;;;5.03;72.88;102021.00;5138351;27;27106;-81
2022/01/16 03:38:46;;;;;;;;;;;;;;;4.95;73.32;102017.47;5137969;27;27264;-81
2022/01/16 03:41:11;;;;;;;;;;;;;;;4.97;73.71;102026.03;5137795;27;27034;-81
2022/01/16 03:43:36;;;;;;;;;;;;;;;4.95;73.70;102009.78;5138144;27;27086;-81
2022/01/16 03:46:03;;;;;;;;;;;;;;;4.97;73.72;102007.25;5136991;27;31486;-81
2022/01/16 03:48:28;;;;;;;;;;;;;;;4.98;73.25;102003.88;5138197;27;26955;-81
2022/01/16 03:50:54;;;;;;;;;;;;;;;4.93;73.72;102002.91;5138812;27;26986;-81
2022/01/16 03:53:19;;;;;;;;;;;;;;;4.95;73.36;101996.16;5136773;27;56992;-81
2022/01/16 03:55:44;;;;;;;;;;;;;;;4.94;73.89;102004.66;5137173;27;54045;-81
2022/01/16 03:58:09;;;;;;;;;;;;;;;4.95;74.24;102001.25;5137685;27;27047;-81
2022/01/16 04:00:34;;;;;;;;;;;;;;;4.99;74.19;101997.88;5137868;27;26895;-80
2022/01/16 04:03:00;;;;;;;;;;;;;;;5.02;73.44;101998.84;5137719;27;27135;-80
2022/01/16 04:05:25;;;;;;;;;;;;;;;5.08;73.59;102013.41;5148018;27;27160;-83
2022/01/16 04:07:50;;;;;;;;;;;;;;;5.07;73.01;101996.31;5147356;27;27061;-83
2022/01/16 04:10:15;;;;;;;;;;;;;;;5.05;73.49;101998.00;5154836;27;26944;-83
2022/01/16 04:12:40;;;;;;;;;;;;;;;5.02;73.71;101987.72;5144735;27;32211;-83
2022/01/16 04:17:40;;;;;;;;;;;;;;;4.99;74.01;101990.22;5138261;27;26971;-82
2022/01/16 04:20:05;;;;;;;;;;;;;;;4.98;73.79;101980.81;5139526;27;26788;-81
2022/01/16 04:22:30;;;;;;;;;;;;;;;5.00;73.43;101989.38;5139358;27;27226;-80
2022/01/16 04:24:56;;;;;;;;;;;;;;;5.01;73.74;101980.88;5139134;27;26844;-80
2022/01/16 04:27:21;;;;;;;;;;;;;;;5.04;72.73;101980.91;5138840;27;27137;-82
2022/01/16 04:29:46;;;;;;;;;;;;;;;5.02;73.53;101986.03;5138583;27;26830;-82
2022/01/16 04:32:12;;;;;;;;;;;;;;;5.07;73.71;101986.09;5136692;27;50122;-82
2022/01/16 04:34:37;;;;;;;;;;;;;;;5.12;73.54;101979.34;5139117;27;26783;-82
2022/01/16 04:37:02;;;;;;;;;;;;;;;5.18;73.71;101979.44;5138617;27;35187;-82
2022/01/16 04:39:33;;;;;;;;;;;;;;;5.23;73.20;101983.81;5139114;27;26948;-82
2022/01/16 04:44:42;;;;;;;;;;;;;;;5.33;73.47;101984.78;5142199;27;27031;-82
2022/01/16 04:47:08;;;;;;;;;;;;;;;5.32;72.88;101988.22;5142723;27;27091;-82
2022/01/16 04:49:33;;;;;;;;;;;;;;;5.27;73.34;101984.72;5139894;27;26951;-82
2022/01/16 04:51:58;;;;;;;;;;;;;;;5.26;73.45;101985.53;5139843;27;27095;-82
2022/01/16 04:54:25;;;;;;;;;;;;;;;5.26;73.72;101988.09;5120657;27;30468;-82
2022/01/16 04:56:50;;;;;;;;;;;;;;;5.26;73.42;101988.97;5138367;27;27639;-82
2022/01/16 04:59:15;;;;;;;;;;;;;;;5.24;73.27;101984.66;5143038;27;26820;-82
2022/01/16 05:01:40;;;;;;;;;;;;;;;5.25;73.35;101981.25;5143039;27;27601;-82
2022/01/16 05:04:05;;;;;;;;;;;;;;;5.26;73.46;101973.59;5141691;27;49769;-82
2022/01/16 05:06:31;;;;;;;;;;;;;;;5.27;73.59;101972.78;5142704;27;26840;-82
2022/01/16 05:08:56;;;;;;;;;;;;;;;5.30;72.69;101969.38;5141410;27;26877;-82
2022/01/16 05:11:25;;;;;;;;;;;;;;;5.28;72.98;101965.97;5141153;27;53727;-82
2022/01/16 05:19:00;;;;;;;;;;;;;;;5.29;73.39;101952.28;5138050;27;26878;-82
2022/01/16 05:21:25;;;;;;;;;;;;;;;5.29;72.96;101936.91;5140695;27;27001;-82
2022/01/16 05:23:51;;;;;;;;;;;;;;;5.33;73.46;101954.06;5140478;27;26743;-82
2022/01/16 05:26:18;;;;;;;;;;;;;;;5.10;73.44;101901.66;5140287;27;57241;-82
2022/01/16 05:28:43;;;;;;;;;;;;;;;5.25;72.67;101930.03;5140709;27;27196;-82
2022/01/16 05:31:10;;;;;;;;;;;;;;;5.37;73.00;101943.03;5140494;27;27130;-82
2022/01/16 05:33:35;;;;;;;;;;;;;;;5.37;73.23;101937.91;5121600;27;26786;-82
2022/01/16 05:36:00;;;;;;;;;;;;;;;5.35;73.39;101939.59;5140675;27;27528;-82
2022/01/16 05:38:25;;;;;;;;;;;;;;;5.34;72.98;101930.19;5141183;27;26968;-82
2022/01/16 05:40:50;;;;;;;;;;;;;;;5.32;73.45;101937.00;5140524;27;43693;-82
2022/01/16 05:43:16;;;;;;;;;;;;;;;5.31;73.31;101932.69;5145079;27;26945;-80
2022/01/16 05:45:41;;;;;;;;;;;;;;;5.30;73.54;101933.53;5142646;27;26897;-84
2022/01/16 05:48:06;;;;;;;;;;;;;;;5.31;73.54;101942.94;5145283;27;45582;-83
2022/01/16 05:50:32;;;;;;;;;;;;;;;5.32;72.68;101937.00;5142786;27;56258;-82
2022/01/16 05:52:58;;;;;;;;;;;;;;;5.28;73.52;101930.09;5142158;27;26846;-82
2022/01/16 05:55:26;;;;;;;;;;;;;;;5.24;72.53;101928.31;5144233;27;26861;-82
2022/01/16 05:57:52;;;;;;;;;;;;;;;5.24;73.43;101930.88;5143744;27;26996;-82
2022/01/16 06:00:17;;;;;;;;;;;;;;;5.24;73.69;101923.22;5142351;27;27352;-84
2022/01/16 06:02:42;;;;;;;;;;;;;;;5.24;73.74;101923.22;5140060;27;48733;-82
2022/01/16 06:05:07;;;;;;;;;;;;;;;5.27;73.71;101918.13;5140130;27;46645;-82
2022/01/16 06:07:33;;;;;;;;;;;;;;;5.29;73.57;101921.56;5140761;27;26918;-82
2022/01/16 06:09:58;;;;;;;;;;;;;;;5.31;72.89;101925.00;5140674;27;26942;-83
2022/01/16 06:12:23;;;;;;;;;;;;;;;5.33;73.58;101923.31;5122102;27;26914;-83
2022/01/16 06:14:48;;;;;;;;;;;;;;;5.36;72.76;101908.03;5140150;27;52848;-83
2022/01/16 06:17:14;;;;;;;;;;;;;;;5.37;72.95;101919.97;5141670;27;26392;-82
2022/01/16 06:19:39;;;;;;;;;;;;;;;5.38;73.04;101916.56;5141262;27;26730;-82
2022/01/16 06:22:04;;;;;;;;;;;;;;;5.38;73.12;101911.44;5139906;27;49571;-82
2022/01/16 06:24:29;;;;;;;;;;;;;;;5.40;73.27;101917.44;5140989;27;26777;-82
2022/01/16 06:26:55;;;;;;;;;;;;;;;5.42;73.02;101923.47;5141173;27;38170;-82
2022/01/16 06:29:20;;;;;;;;;;;;;;;5.45;72.99;101915.81;5140519;27;26994;-81
2022/01/16 06:31:45;;;;;;;;;;;;;;;5.44;73.57;101916.66;5141209;27;27024;-80
2022/01/16 06:34:10;;;;;;;;;;;;;;;5.44;73.03;101924.34;5140035;27;37558;-81
2022/01/16 06:36:36;;;;;;;;;;;;;;;5.44;73.48;101926.91;5141569;27;26860;-81
2022/01/16 06:39:03;;;;;;;;;;;;;;;5.44;73.51;101923.47;5140885;27;27978;-80
2022/01/16 06:41:28;;;;;;;;;;;;;;;5.44;73.16;101937.13;5141429;27;26890;-81
2022/01/16 06:43:53;;;;;;;;;;;;;;;5.42;73.56;101935.41;5141800;27;27707;-82
2022/01/16 06:46:18;;;;;;;;;;;;;;;5.44;73.66;101947.38;5142123;27;27063;-82
2022/01/16 06:48:44;;;;;;;;;;;;;;;5.46;72.83;101935.47;5139370;27;55094;-82
2022/01/16 06:51:09;;;;;;;;;;;;;;;5.47;73.41;101947.47;5142263;27;52098;-83
2022/01/16 06:53:34;;;;;;;;;;;;;;;5.47;73.49;101947.47;5142347;27;26940;-82
2022/01/16 06:56:00;;;;;;;;;;;;;;;5.47;73.41;101942.34;5141659;27;26753;-82
2022/01/16 06:58:25;;;;;;;;;;;;;;;5.51;73.57;101943.25;5141458;27;26969;-82
2022/01/16 07:00:51;;;;;;;;;;;;;;;5.52;73.63;101938.13;5122217;27;27024;-82
2022/01/16 07:03:16;;;;;;;;;;;;;;;5.56;72.64;101946.69;5141391;27;27053;-83
2022/01/16 07:05:42;;;;;;;;;;;;;;;5.57;73.50;101946.75;5140543;27;27080;-82
2022/01/16 07:08:07;;;;;;;;;;;;;;;5.55;72.85;101950.97;5140089;27;27311;-82
2022/01/16 07:10:32;;;;;;;;;;;;;;;5.56;72.85;101960.38;5140647;27;27017;-82
2022/01/16 07:12:57;;;;;;;;;;;;;;;5.52;72.61;101950.94;5140507;27;26998;-84
2022/01/16 07:15:23;;;;;;;;;;;;;;;5.53;72.75;101952.66;5138961;27;53288;-83
2022/01/16 07:17:48;;;;;;;;;;;;;;;5.52;73.53;101956.06;5140229;27;26862;-84
2022/01/16 07:20:15;;;;;;;;;;;;;;;5.52;73.07;101958.63;5139813;27;26894;-82
2022/01/16 07:22:40;;;;;;;;;;;;;;;5.52;73.67;101968.88;5139214;27;27218;-82
2022/01/16 07:25:05;;;;;;;;;;;;;;;5.51;73.31;101969.69;5138798;27;27009;-82
2022/01/16 07:27:30;;;;;;;;;;;;;;;5.52;73.75;101986.78;5138432;27;27743;-82
2022/01/16 07:29:55;;;;;;;;;;;;;;;5.53;72.86;101993.66;5138453;27;54087;-82
2022/01/16 07:32:21;;;;;;;;;;;;;;;5.49;73.80;101991.03;5138946;27;43981;-82
2022/01/16 07:34:46;;;;;;;;;;;;;;;5.45;73.16;102000.34;5138686;27;54383;-82
2022/01/16 07:37:11;;;;;;;;;;;;;;;5.46;73.11;101990.97;5138496;27;27537;-82
2022/01/16 07:39:37;;;;;;;;;;;;;;;5.50;73.82;101998.75;5119331;27;54802;-83
2022/01/16 07:42:03;;;;;;;;;;;;;;;5.52;73.76;102007.28;5138478;27;27008;-83
2022/01/16 07:44:28;;;;;;;;;;;;;;;5.53;74.17;102005.59;5139052;27;26854;-83
2022/01/16 07:46:53;;;;;;;;;;;;;;;5.55;73.54;102015.03;5136686;27;47928;-83
2022/01/16 07:49:18;;;;;;;;;;;;;;;5.58;73.95;101997.16;5137548;27;55448;-82
2022/01/16 07:51:43;;;;;;;;;;;;;;;5.58;73.17;102007.41;5136743;27;56629;-82
2022/01/16 07:54:08;;;;;;;;;;;;;;;5.56;74.04;102009.06;5137822;27;49719;-82
2022/01/16 07:56:34;;;;;;;;;;;;;;;5.56;73.76;102003.94;5137669;27;55834;-82
2022/01/16 07:58:59;;;;;;;;;;;;;;;5.58;73.19;101997.16;5140309;27;27127;-82
2022/01/16 08:01:24;;;;;;;;;;;;;;;5.58;74.24;102012.53;5143154;27;26964;-82
2022/01/16 08:03:49;;;;;;;;;;;;;;;5.60;74.17;102018.53;5141240;27;26973;-82
2022/01/16 08:06:15;;;;;;;;;;;;;;;5.61;73.80;102022.81;5141438;27;26914;-82
2022/01/16 08:08:40;;;;;;;;;;;;;;;5.63;74.17;102005.75;5140139;27;26890;-82
2022/01/16 08:11:08;;;;;;;;;;;;;;;5.67;73.77;102007.53;5139129;27;56925;-81
2022/01/16 08:13:34;;;;;;;;;;;;;;;5.66;74.19;102020.34;5138849;27;26912;-81
2022/01/16 08:15:59;;;;;;;;;;;;;;;5.67;74.10;102022.91;5141973;27;52383;-81
2022/01/16 08:18:24;;;;;;;;;;;;;;;5.69;74.04;102011.00;5145602;27;53653;-81
2022/01/16 08:20:49;;;;;;;;;;;;;;;5.73;74.17;102007.63;5140089;27;57442;-81
2022/01/16 08:23:14;;;;;;;;;;;;;;;5.74;73.79;102004.19;5139015;27;26779;-81
2022/01/16 08:25:41;;;;;;;;;;;;;;;5.79;73.24;102007.69;5139254;27;55472;-81
2022/01/16 08:28:06;;;;;;;;;;;;;;;5.81;74.27;102008.56;5142796;27;26599;-81
2022/01/16 08:30:31;;;;;;;;;;;;;;;5.80;73.26;102004.31;5139144;27;56168;-81
2022/01/16 08:32:56;;;;;;;;;;;;;;;5.83;73.33;102003.47;5141806;27;26798;-81
2022/01/16 08:35:22;;;;;;;;;;;;;;;5.77;73.24;101996.56;5142660;27;26890;-81
2022/01/16 08:37:47;;;;;;;;;;;;;;;5.78;73.32;102011.09;5143659;27;26811;-81
2022/01/16 08:40:13;;;;;;;;;;;;;;;5.78;74.03;102011.09;5144148;27;27310;-81
2022/01/16 08:42:40;;;;;;;;;;;;;;;5.81;73.52;102011.13;5143454;27;26840;-81
2022/01/16 08:45:05;;;;;;;;;;;;;;;5.87;73.96;102020.66;5143355;27;26995;-81
2022/01/16 08:47:32;;;;;;;;;;;;;;;5.89;73.90;102023.22;5142783;27;26967;-81
2022/01/16 08:49:58;;;;;;;;;;;;;;;5.89;74.07;102018.09;5142827;27;27148;-81
2022/01/16 08:52:23;;;;;;;;;;;;;;;5.93;73.43;102014.72;5141674;27;27010;-81
2022/01/16 08:54:48;;;;;;;;;;;;;;;5.92;73.95;102023.28;5143185;27;26893;-81
2022/01/16 08:57:14;;;;;;;;;;;;;;;5.94;73.12;102021.59;5149662;27;38667;-81
2022/01/16 08:59:39;;;;;;;;;;;;;;;5.97;73.72;102017.38;5154014;27;26968;-80
2022/01/16 09:02:04;;;;;;;;;;;;;;;6.01;73.43;102038.78;5150364;27;44974;-81
2022/01/16 09:04:29;;;;;;;;;;;;;;;6.05;73.22;102035.41;5144268;27;26830;-81
2022/01/16 09:06:55;;;;;;;;;;;;;;;6.08;73.91;102030.31;5142540;27;26959;-81
2022/01/16 09:09:20;;;;;;;;;;;;;;;6.05;73.67;102030.28;5142054;27;48073;-83
2022/01/16 09:11:45;;;;;;;;;;;;;;;6.11;73.91;102040.66;5142586;27;26895;-81
2022/01/16 09:14:11;;;;;;;;;;;;;;;6.14;73.59;102035.56;5141191;27;27641;-80
2022/01/16 09:16:36;;;;;;;;;;;;;;;6.16;73.44;102039.00;5141428;27;44539;-81
2022/01/16 09:19:01;;;;;;;;;;;;;;;6.18;73.15;102037.31;5142172;27;26901;-81
2022/01/16 09:21:26;;;;;;;;;;;;;;;6.26;73.56;102033.16;5128163;27;26919;-81
2022/01/16 09:23:52;;;;;;;;;;;;;;;6.34;73.41;102033.25;5154645;27;27155;-81
2022/01/16 09:26:17;;;;;;;;;;;;;;;6.41;73.20;102033.31;5146969;27;26867;-82
2022/01/16 09:28:43;;;;;;;;;;;;;;;6.48;73.41;102039.41;5125045;27;27608;-81
2022/01/16 09:31:09;;;;;;;;;;;;;;;6.52;73.41;102034.31;5142543;27;26478;-81
2022/01/16 09:33:34;;;;;;;;;;;;;;;6.49;73.33;102044.53;5142497;27;27082;-81
2022/01/16 09:36:00;;;;;;;;;;;;;;;6.51;72.66;102049.69;5140945;27;27093;-82
2022/01/16 09:38:25;;;;;;;;;;;;;;;6.56;73.90;102045.47;5142521;27;27009;-81
2022/01/16 09:40:51;;;;;;;;;;;;;;;6.61;73.71;102054.06;5141221;27;54482;-81
2022/01/16 09:43:17;;;;;;;;;;;;;;;6.63;72.86;102053.28;5141261;27;27013;-81
2022/01/16 09:45:42;;;;;;;;;;;;;;;6.66;73.20;102048.16;5142668;27;26974;-81
2022/01/16 09:48:07;;;;;;;;;;;;;;;6.69;73.75;102045.63;5141626;27;27053;-81
2022/01/16 09:50:33;;;;;;;;;;;;;;;6.75;73.23;102048.25;5142662;27;26921;-80
2022/01/16 09:52:59;;;;;;;;;;;;;;;6.82;73.32;102058.59;5142523;27;27296;-81
2022/01/16 09:55:25;;;;;;;;;;;;;;;6.89;72.48;102056.09;5142147;27;26982;-80
2022/01/16 09:57:50;;;;;;;;;;;;;;;6.97;73.01;102053.63;5149174;27;26657;-80
2022/01/16 10:00:16;;;;;;;;;;;;;;;7.01;72.60;102055.38;5147905;27;26800;-81
2022/01/16 10:02:41;;;;;;;;;;;;;;;7.09;72.98;102058.84;5141881;27;27461;-81
2022/01/16 10:05:20;;;;;;;;;;;;;;;7.16;73.24;102052.94;5142121;27;27011;-81
2022/01/16 10:07:45;;;;;;;;;;;;;;;7.23;72.08;102062.44;5141754;27;27055;-81
2022/01/16 10:10:12;;;;;;;;;;;;;;;7.29;72.64;102062.47;5140190;27;55141;-80
2022/01/16 10:12:45;;;;;;;;;;;;;;;7.33;72.30;102069.38;5140584;27;26803;-81
2022/01/16 10:15:16;;;;;;;;;;;;;;;7.37;71.71;102073.69;5141230;27;26895;-81
2022/01/16 10:17:45;;;;;;;;;;;;;;;7.40;71.53;102076.28;5139795;27;28368;-80
2022/01/16 10:20:10;;;;;;;;;;;;;;;7.43;71.82;102084.00;5140722;27;26953;-80
2022/01/16 10:22:49;;;;;;;;;;;;;;;7.46;72.40;102071.16;5139892;27;52212;-80
2022/01/16 10:25:16;;;;;;;;;;;;;;;7.53;72.28;102083.25;5140593;27;26894;-82
2022/01/16 10:27:42;;;;;;;;;;;;;;;7.59;71.71;102087.56;5140696;27;27254;-80
2022/01/16 10:30:09;;;;;;;;;;;;;;;7.56;70.74;102088.41;5140955;27;26993;-80
2022/01/16 10:32:43;;;;;;;;;;;;;;;7.60;71.38;102084.16;5139782;27;27066;-81
2022/01/16 10:35:17;;;;;;;;;;;;;;;7.57;71.38;102079.81;5139502;27;27012;-81
2022/01/16 10:37:48;;;;;;;;;;;;;;;7.56;71.39;102078.13;5139612;27;27049;-81
2022/01/16 10:40:17;;;;;;;;;;;;;;;7.56;71.09;102083.28;5140610;27;26915;-81
2022/01/16 10:42:47;;;;;;;;;;;;;;;7.57;71.48;102079.81;5140725;27;27084;-81
2022/01/16 10:45:13;;;;;;;;;;;;;;;7.57;70.78;102079.81;5140566;27;27067;-80
2022/01/16 10:47:40;;;;;;;;;;;;;;;7.62;71.52;102080.72;5139519;27;27720;-81
2022/01/16 10:50:08;;;;;;;;;;;;;;;7.70;71.86;102085.94;5140485;27;26615;-81
2022/01/16 10:52:44;;;;;;;;;;;;;;;7.71;71.46;102083.38;5139767;27;26815;-80
2022/01/16 10:55:10;;;;;;;;;;;;;;;7.72;70.67;102069.66;5140146;27;26983;-80
2022/01/16 10:57:35;;;;;;;;;;;;;;;7.74;71.13;102083.41;5140209;27;27048;-81
2022/01/16 11:00:09;;;;;;;;;;;;;;;7.65;71.21;102042.19;5120998;27;26880;-80
2022/01/16 11:02:35;;;;;;;;;;;;;;;7.81;70.76;102080.88;5140366;27;26871;-80
2022/01/16 11:05:07;;;;;;;;;;;;;;;7.84;71.58;102068.03;5140277;27;26892;-80
2022/01/16 11:07:32;;;;;;;;;;;;;;;7.89;70.85;102076.63;5140495;27;27814;-81
2022/01/16 11:09:57;;;;;;;;;;;;;;;7.92;70.76;102081.78;5140930;27;31365;-82
2022/01/16 11:12:22;;;;;;;;;;;;;;;7.95;70.76;102087.81;5140368;27;57486;-83
2022/01/16 11:14:48;;;;;;;;;;;;;;;8.00;71.22;102091.28;5122308;27;26877;-83
2022/01/16 11:17:13;;;;;;;;;;;;;;;8.08;71.44;102083.63;5142116;27;27003;-82
2022/01/16 11:19:39;;;;;;;;;;;;;;;8.14;71.22;102089.66;5140309;27;54006;-82
2022/01/16 11:22:09;;;;;;;;;;;;;;;8.11;70.05;102089.66;5140701;27;26878;-82
2022/01/16 11:24:46;;;;;;;;;;;;;;;8.10;70.80;102090.50;5145886;27;26871;-81
2022/01/16 11:27:14;;;;;;;;;;;;;;;8.11;70.84;102096.50;5140483;27;26838;-81
2022/01/16 11:29:39;;;;;;;;;;;;;;;8.12;70.80;102099.09;5139398;27;27130;-81
2022/01/16 11:32:05;;;;;;;;;;;;;;;8.16;70.89;102092.25;5139155;27;26934;-81
2022/01/16 11:34:30;;;;;;;;;;;;;;;8.14;70.39;102093.94;5139882;27;27068;-81
2022/01/16 11:36:57;;;;;;;;;;;;;;;8.16;70.95;102089.69;5138740;27;44970;-81
2022/01/16 11:39:23;;;;;;;;;;;;;;;8.19;70.75;102092.25;5139594;27;26855;-81
2022/01/16 11:41:50;;;;;;;;;;;;;;;8.21;70.67;102100.88;5139465;27;27412;-81
2022/01/16 11:44:29;;;;;;;;;;;;;;;8.26;71.32;102088.88;5140097;27;27034;-81
2022/01/16 11:46:55;;;;;;;;;;;;;;;8.27;70.62;102093.16;5138515;27;26988;-82
2022/01/16 11:49:38;;;;;;;;;;;;;;;8.30;70.66;102098.34;5138806;27;26929;-82
2022/01/16 11:52:07;;;;;;;;;;;;;;;8.31;70.74;102092.38;5141707;27;27648;-83
2022/01/16 11:54:34;;;;;;;;;;;;;;;8.33;70.65;102080.34;5141147;27;27026;-83
2022/01/16 11:57:04;;;;;;;;;;;;;;;8.34;70.59;102082.06;5140686;27;27195;-83
2022/01/16 11:59:29;;;;;;;;;;;;;;;8.37;70.91;102076.94;5139901;27;27013;-83
2022/01/16 12:02:00;;;;;;;;;;;;;;;8.41;71.11;102088.09;5139294;27;27243;-83
2022/01/16 12:04:28;;;;;;;;;;;;;;;8.45;70.93;102093.28;5139719;27;26754;-83
2022/01/16 12:06:55;;;;;;;;;;;;;;;8.48;70.69;102095.88;5120190;27;28308;-83
2022/01/16 12:09:37;;;;;;;;;;;;;;;8.53;70.86;102104.47;5139936;27;27099;-83
2022/01/16 12:12:03;;;;;;;;;;;;;;;8.54;70.60;102100.19;5140810;27;27000;-83
2022/01/16 12:14:47;;;;;;;;;;;;;;;8.55;70.73;102094.16;5140465;27;27044;-83
2022/01/16 12:17:27;;;;;;;;;;;;;;;8.58;70.46;102097.66;5139559;27;26949;-82
2022/01/16 12:19:53;;;;;;;;;;;;;;;8.59;70.77;102107.06;5144582;27;26770;-81
2022/01/16 12:22:38;;;;;;;;;;;;;;;8.59;70.58;102104.50;5148363;27;26884;-82
2022/01/16 12:25:04;;;;;;;;;;;;;;;8.61;70.72;102091.63;5140369;27;26952;-81
2022/01/16 12:27:39;;;;;;;;;;;;;;;8.63;70.89;102085.63;5140576;27;27405;-82
2022/01/16 12:30:10;;;;;;;;;;;;;;;8.64;70.73;102097.66;5138597;27;27045;-81
2022/01/16 12:32:52;;;;;;;;;;;;;;;8.66;70.69;102100.25;5140306;27;27897;-81
2022/01/16 12:35:36;;;;;;;;;;;;;;;8.69;70.86;102106.28;5138662;27;26896;-81
2022/01/16 12:38:14;;;;;;;;;;;;;;;8.70;70.84;102102.81;5138074;27;28008;-81
2022/01/16 12:40:43;;;;;;;;;;;;;;;8.71;70.82;102107.13;5138002;27;26804;-82
2022/01/16 12:43:12;;;;;;;;;;;;;;;8.72;70.79;102101.13;5138304;27;26856;-80
2022/01/16 12:45:38;;;;;;;;;;;;;;;8.79;70.48;102111.44;5140320;27;26849;-82
2022/01/16 12:48:03;;;;;;;;;;;;;;;8.82;70.82;102106.28;5139385;27;26984;-82
2022/01/16 12:50:29;;;;;;;;;;;;;;;8.82;70.47;102106.28;5138236;27;27389;-82
2022/01/16 12:52:54;;;;;;;;;;;;;;;8.84;70.48;102100.31;5138494;27;27082;-82
2022/01/16 12:55:24;;;;;;;;;;;;;;;8.87;70.63;102099.44;5138547;27;26868;-82
2022/01/16 12:57:50;;;;;;;;;;;;;;;8.86;70.72;102088.28;5138277;27;28284;-82
2022/01/16 13:00:15;;;;;;;;;;;;;;;8.87;70.86;102097.72;5137815;27;46688;-83
2022/01/16 13:02:41;;;;;;;;;;;;;;;8.89;70.64;102092.56;5119491;27;27619;-82
2022/01/16 13:05:07;;;;;;;;;;;;;;;8.89;70.56;102092.56;5138302;27;26804;-83
2022/01/16 13:07:33;;;;;;;;;;;;;;;8.89;70.11;102095.16;5138465;27;26817;-82
2022/01/16 13:09:58;;;;;;;;;;;;;;;8.87;70.34;102084.00;5138435;27;27015;-82
2022/01/16 13:12:23;;;;;;;;;;;;;;;8.88;70.29;102090.88;5138346;27;26993;-83
2022/01/16 13:14:48;;;;;;;;;;;;;;;8.90;70.12;102104.59;5137955;27;26773;-82
2022/01/16 13:17:14;;;;;;;;;;;;;;;8.91;70.67;102101.19;5136085;27;57431;-83
2022/01/16 13:22:12;;;;;;;;;;;;;;;8.94;70.24;102098.59;5146835;27;27756;-83
2022/01/16 13:24:38;;;;;;;;;;;;;;;8.92;70.27;102097.75;5154410;27;26823;-83
2022/01/16 13:27:05;;;;;;;;;;;;;;;8.93;70.48;102104.59;5143593;27;27086;-82
2022/01/16 13:29:31;;;;;;;;;;;;;;;8.90;70.26;102094.28;5141309;27;27165;-82
2022/01/16 13:31:57;;;;;;;;;;;;;;;8.87;70.07;102104.59;5142806;27;27226;-83
2022/01/16 13:34:42;;;;;;;;;;;;;;;8.87;70.25;102100.31;5143329;27;26873;-81
2022/01/16 13:37:13;;;;;;;;;;;;;;;8.85;70.54;102103.75;5152080;27;26825;-81
2022/01/16 13:39:39;;;;;;;;;;;;;;;8.82;70.38;102106.28;5143891;27;26941;-82